Hoven, SD (57450)

1:36 PM CDT on October 23, 2014 (GMT -0500)
KSDHOVEN2 | Change Station
CLOSE
Current Station
Personal Weather Station
Location: Hoven, SD
Elevation: 1877 ft
Nearby Weather Stations

Elev 1877 ft 45.24 °N, 99.78 °W | Updated 5 minutes ago

Clear
Clear
66.6 °F
Feels Like 66.6 °F
N
6.3
Wind Variable Wind from WSW
Gusts 10.1 mph

Today
High -- | Low -- °F
--% Chance of Precip.
Yesterday
High -- | Low -- °F
Precip. -- in
8:05 AM 6:40 PM
Waning Crescent, 0% visible
Pressure 29.92 in
Visibility 10.0 miles
Clouds Clear
Dew Point 31 °F
Humidity 26%
Rainfall 0.00 in
Snow Depth Not available.
UV 4 out of 12
Pollen 1.60 out of 12
Air Quality Not available.
Flu Activity Sporadic
METAR KMBG 231752Z AUTO 19007KT 10SM CLR 17/04 A2990 RMK AO2 SLP130 T01670039 10172 20044 58010

More Conditions Fewer Conditions

Pressure 29.92 in
Visibility 10.0 miles
Clouds Clear
Dew Point 31 °F
Humidity 26%
Rainfall 0.00 in
Snow Depth Not available.
UV 4 out of 12
Pollen 1.60 out of 12
Air Quality Not available.
Flu Activity Sporadic
METAR KMBG 231752Z AUTO 19007KT 10SM CLR 17/04 A2990 RMK AO2 SLP130 T01670039 10172 20044 58010

More Conditions Fewer Conditions

10-Day Weather Forecast

Almanac

Astronomy

Oct. 23, 2014 Rise Set
Actual Time 8:05 AM CDT 6:40 PM CDT
Civil Twilight 7:35 AM CDT 7:10 PM CDT
Nautical Twilight 7:01 AM CDT 7:44 PM CDT
Astronomical Twilight 6:27 AM CDT 8:18 PM CDT
Moon 7:46 AM CDT 6:42 PM CDT
Length of Visible Light 11h 34m
Length of Day
10h 34m
Tomorrow will be 2m 58s shorter.
Waning Crescent, 0% of the Moon is Illuminated
Today
Waning Crescent
Oct 23
New
Oct 30
First Quarter
Nov 6
Full
Nov 14
Last Quarter

Today's Extremes

State Highs State Lows

Community

WunderPhotos

Upload Photos

1,764,338 photos uploaded!

WunderBlogs® & News

Nearby

Snow Depth

Station Depth Elevation
North Rapid Creek 1 in 6130 ft
Blind Park 0 in 6890 ft

Earthquake Activity

City Distance Mag. Time & Date
No recent earthquake activity has been reported nearby.
Minimum magnitude displayed is 2.5.

Coastal Water Temperatures

Place Temperature
No Stations Reporting

Nearby Weather Stations